KFAT

Fresno Yosemite International Airport

Fresno, California, USA
KFAT 251720Z 2518/2618 32007KT P6SM BKN200
Issued Valid From Valid To
Apr-25 @ 17:20 UTC
(52 minutes ago)
Apr-25 @ 18:00 UTC
(12 minutes ago)
Apr-26 @ 18:00 UTC
(in 24 hours)
Apr-25 @ 18:00 to Apr-26 @ 18:00
KFAT 251720Z 2518/2618 32007KT P6SM BKN200
Wind Visibility Clouds
320° at 7 knots Greater than 6 miles
  • Broken at 20,000' AGL
KFAT 251720Z 2518/2618 32007KT P6SM BKN200
Issued Apr-25 @ 17:20 UTC
(52 minutes ago)
Valid From Apr-25 @ 18:00 UTC
(12 minutes ago)
Valid To Apr-26 @ 18:00 UTC
(in 24 hours)
Apr-25 @ 18:00 - Apr-26 @ 18:00
Wind Visibility
320° at 7 knots Greater than 6 miles
Clouds
  • Broken at 20,000' AGL